createdAt,value
2022-12-04T00:00:34.915Z,995.26
2022-12-04T00:02:38.268Z,995.28
2022-12-04T00:03:59.205Z,995.29
2022-12-04T00:05:01.753Z,995.25
2022-12-04T00:07:31.599Z,995.24
2022-12-04T00:08:34.096Z,995.28
2022-12-04T00:09:36.641Z,995.25
2022-12-04T00:10:39.204Z,995.28
2022-12-04T00:11:48.135Z,995.3
2022-12-04T00:13:19.032Z,995.25
2022-12-04T00:14:20.804Z,995.23
2022-12-04T00:17:03.577Z,995.3
2022-12-04T00:18:05.405Z,995.32
2022-12-04T00:19:07.872Z,995.26
2022-12-04T00:20:10.417Z,995.25
2022-12-04T00:21:12.967Z,995.22
2022-12-04T00:22:15.565Z,995.15
2022-12-04T00:23:18.166Z,995.23
2022-12-04T00:24:20.774Z,995.21
2022-12-04T00:25:23.367Z,995.23
2022-12-04T00:26:30.478Z,995.25
2022-12-04T00:27:52.784Z,995.2
2022-12-04T00:29:35.258Z,995.23
2022-12-04T00:30:37.046Z,995.19
2022-12-04T00:31:49.812Z,995.21
2022-12-04T00:32:51.961Z,995.19
2022-12-04T00:33:54.533Z,995.2
2022-12-04T00:35:07.064Z,995.13
2022-12-04T00:36:59.691Z,995.19
2022-12-04T00:38:11.454Z,995.18
2022-12-04T00:39:13.453Z,995.25
2022-12-04T00:40:15.972Z,995.19
2022-12-04T00:41:28.535Z,995.28
2022-12-04T00:42:40.575Z,995.24
2022-12-04T00:43:42.708Z,995.27
2022-12-04T00:44:45.880Z,995.27
2022-12-04T00:45:58.783Z,995.29
2022-12-04T00:47:00.948Z,995.3
2022-12-04T00:48:03.522Z,995.25
2022-12-04T00:49:06.055Z,995.27
2022-12-04T00:50:08.633Z,995.18
2022-12-04T00:51:11.204Z,995.2
2022-12-04T00:52:13.753Z,995.23
2022-12-04T00:53:26.399Z,995.23
2022-12-04T00:54:28.650Z,995.18
2022-12-04T00:55:31.205Z,995.2
2022-12-04T00:56:33.815Z,995.21
2022-12-04T00:57:36.369Z,995.19
2022-12-04T00:58:38.920Z,995.23
2022-12-04T00:59:41.459Z,995.18
2022-12-04T01:00:44.257Z,995.2
2022-12-04T01:01:46.881Z,995.22
2022-12-04T01:02:49.611Z,995.09
2022-12-04T01:03:52.733Z,995.12
2022-12-04T01:04:55.294Z,995.13
2022-12-04T01:05:57.894Z,995.14
2022-12-04T01:07:05.700Z,995.1
2022-12-04T01:08:08.329Z,995.04
2022-12-04T01:09:10.904Z,995.11
2022-12-04T01:10:13.503Z,995.05
2022-12-04T01:11:15.973Z,995.12
2022-12-04T01:12:21.573Z,995.06
2022-12-04T01:13:23.962Z,995.09
2022-12-04T01:14:26.445Z,995.09
2022-12-04T01:15:28.945Z,995.11
2022-12-04T01:16:31.801Z,995.08
2022-12-04T01:17:34.406Z,995
2022-12-04T01:18:36.977Z,995.04
2022-12-04T01:19:49.524Z,995.04
2022-12-04T01:20:53.181Z,995.06
2022-12-04T01:21:55.636Z,995.09
2022-12-04T01:22:58.189Z,995.07
2022-12-04T01:24:00.642Z,995.19
2022-12-04T01:25:03.700Z,995.13
2022-12-04T01:26:06.292Z,995.1
2022-12-04T01:27:08.665Z,995.11
2022-12-04T01:28:11.405Z,995.11
2022-12-04T01:29:14.014Z,995.13
2022-12-04T01:30:16.632Z,995.19
2022-12-04T01:31:19.546Z,995.16
2022-12-04T01:32:22.166Z,995.18
2022-12-04T01:33:24.751Z,995.17
2022-12-04T01:34:27.398Z,995.19
2022-12-04T01:35:33.691Z,995.14
2022-12-04T01:36:36.114Z,995.12
2022-12-04T01:37:38.710Z,995.04
2022-12-04T01:38:41.316Z,995.06
2022-12-04T01:39:43.916Z,995.04
2022-12-04T01:40:46.534Z,995.05
2022-12-04T01:41:49.128Z,995.06
2022-12-04T01:42:52.316Z,995.09
2022-12-04T01:43:56.473Z,995.08
2022-12-04T01:44:58.954Z,995.14
2022-12-04T01:46:01.957Z,995.14
2022-12-04T01:47:04.539Z,995.09
2022-12-04T01:48:07.122Z,995.12
2022-12-04T01:49:09.669Z,995.11
2022-12-04T01:50:12.282Z,995.13
2022-12-04T01:51:14.865Z,995.16
2022-12-04T01:52:17.440Z,995.11
2022-12-04T01:53:20.077Z,995.04
2022-12-04T01:54:26.174Z,995.15
2022-12-04T01:55:28.529Z,995.11
2022-12-04T01:56:31.125Z,995.15
2022-12-04T01:57:33.729Z,995.09
2022-12-04T01:58:36.310Z,995.07
2022-12-04T01:59:39.873Z,995.03
2022-12-04T02:00:42.700Z,995.06
2022-12-04T02:01:45.481Z,995.03
2022-12-04T02:02:48.385Z,995.06
2022-12-04T02:03:51.019Z,995.13
2022-12-04T02:04:53.638Z,995.1
2022-12-04T02:05:56.200Z,995.17
2022-12-04T02:06:58.809Z,995.16
2022-12-04T02:08:01.764Z,995.16
2022-12-04T02:09:04.417Z,995.16
2022-12-04T02:10:06.996Z,995.14
2022-12-04T02:11:10.200Z,995.09
2022-12-04T02:12:12.749Z,995.05
2022-12-04T02:13:15.375Z,995.1
2022-12-04T02:14:17.976Z,995.04
2022-12-04T02:15:20.654Z,994.99
2022-12-04T02:16:23.499Z,995.03
2022-12-04T02:17:26.191Z,994.92
2022-12-04T02:18:28.817Z,994.96
2022-12-04T02:19:31.429Z,995.02
2022-12-04T02:20:34.070Z,994.98
2022-12-04T02:21:36.935Z,994.99
2022-12-04T02:22:39.527Z,995.03
2022-12-04T02:23:42.081Z,994.97
2022-12-04T02:24:50.711Z,995.03
2022-12-04T02:25:52.973Z,995.03
2022-12-04T02:26:55.544Z,994.97
2022-12-04T02:27:58.158Z,995.01
2022-12-04T02:29:00.755Z,994.97
2022-12-04T02:30:03.351Z,995.01
2022-12-04T02:31:06.421Z,995.01
2022-12-04T02:32:09.056Z,994.97
2022-12-04T02:33:11.695Z,995.02
2022-12-04T02:34:14.280Z,994.98
2022-12-04T02:35:16.918Z,994.95
2022-12-04T02:36:19.511Z,995
2022-12-04T02:37:22.108Z,995.01
2022-12-04T02:38:24.685Z,995.03
2022-12-04T02:39:27.300Z,995.03
2022-12-04T02:40:29.953Z,994.99
2022-12-04T02:41:32.587Z,994.99
2022-12-04T02:42:35.250Z,995
2022-12-04T02:43:37.813Z,995.04
2022-12-04T02:44:40.413Z,995.03
2022-12-04T02:45:43.250Z,995.03
2022-12-04T02:46:46.184Z,995.02
2022-12-04T02:47:48.839Z,995.01
2022-12-04T02:48:51.684Z,994.93
2022-12-04T02:49:55.459Z,994.97
2022-12-04T02:50:58.126Z,994.94
2022-12-04T02:52:00.684Z,994.92
2022-12-04T02:53:03.322Z,994.94
2022-12-04T02:54:05.934Z,994.94
2022-12-04T02:55:09.254Z,994.91
2022-12-04T02:56:11.784Z,994.97
2022-12-04T02:57:14.484Z,994.91
2022-12-04T02:58:17.098Z,994.94
2022-12-04T02:59:19.720Z,994.87
2022-12-04T03:00:22.323Z,994.92
2022-12-04T03:01:25.230Z,994.92
2022-12-04T03:02:28.244Z,994.84
2022-12-04T03:03:30.887Z,994.87
2022-12-04T03:04:33.504Z,994.84
2022-12-04T03:05:36.141Z,994.87
2022-12-04T03:06:38.786Z,994.9
2022-12-04T03:07:41.693Z,994.87
2022-12-04T03:08:44.322Z,994.83
2022-12-04T03:09:46.971Z,994.81
2022-12-04T03:10:49.526Z,994.82
2022-12-04T03:11:52.194Z,994.78
2022-12-04T03:12:54.792Z,994.82
2022-12-04T03:13:57.343Z,994.75
2022-12-04T03:14:59.928Z,994.81
2022-12-04T03:16:02.529Z,994.8
2022-12-04T03:17:05.559Z,994.83
2022-12-04T03:18:08.260Z,994.77
2022-12-04T03:19:10.858Z,994.75
2022-12-04T03:20:13.491Z,994.76
2022-12-04T03:21:16.080Z,994.68
2022-12-04T03:22:18.693Z,994.75
2022-12-04T03:23:21.312Z,994.77
2022-12-04T03:24:23.957Z,994.71
2022-12-04T03:25:26.568Z,994.7
2022-12-04T03:26:29.761Z,994.67
2022-12-04T03:27:32.352Z,994.65
2022-12-04T03:28:34.963Z,994.67
2022-12-04T03:29:38.147Z,994.67
2022-12-04T03:30:41.009Z,994.64
2022-12-04T03:31:43.580Z,994.69
2022-12-04T03:32:46.167Z,994.64
2022-12-04T03:33:48.937Z,994.63
2022-12-04T03:34:51.623Z,994.65
2022-12-04T03:35:54.260Z,994.65
2022-12-04T03:36:56.861Z,994.59
2022-12-04T03:38:00.075Z,994.59
2022-12-04T03:39:02.686Z,994.59
2022-12-04T03:40:05.874Z,994.56
2022-12-04T03:41:08.458Z,994.56
2022-12-04T03:42:11.010Z,994.62
2022-12-04T03:43:14.204Z,994.56
2022-12-04T03:44:16.795Z,994.65
2022-12-04T03:45:19.355Z,994.68
2022-12-04T03:46:22.208Z,994.67
2022-12-04T03:47:24.821Z,994.65
2022-12-04T03:48:27.451Z,994.74
2022-12-04T03:49:30.166Z,994.74
2022-12-04T03:50:32.773Z,994.71
2022-12-04T03:51:35.409Z,994.71
2022-12-04T03:52:38.023Z,994.75
2022-12-04T03:53:40.611Z,994.74
2022-12-04T03:54:43.244Z,994.72
2022-12-04T03:55:45.832Z,994.68
2022-12-04T03:56:48.432Z,994.7
2022-12-04T03:57:51.085Z,994.73
2022-12-04T03:58:53.662Z,994.73
2022-12-04T03:59:57.148Z,994.69
2022-12-04T04:01:00.576Z,994.71
2022-12-04T04:02:03.583Z,994.7
2022-12-04T04:03:06.615Z,994.7
2022-12-04T04:04:09.232Z,994.74
2022-12-04T04:05:11.934Z,994.7
2022-12-04T04:06:14.494Z,994.7
2022-12-04T04:07:17.159Z,994.69
2022-12-04T04:08:20.097Z,994.68
2022-12-04T04:09:22.701Z,994.66
2022-12-04T04:10:25.281Z,994.73
2022-12-04T04:11:27.884Z,994.72
2022-12-04T04:12:30.484Z,994.76
2022-12-04T04:13:33.144Z,994.87
2022-12-04T04:14:35.748Z,994.82
2022-12-04T04:15:38.618Z,994.82
2022-12-04T04:16:41.274Z,994.87
2022-12-04T04:17:43.862Z,994.87
2022-12-04T04:18:46.504Z,994.8
2022-12-04T04:19:49.070Z,994.87
2022-12-04T04:20:51.786Z,994.87
2022-12-04T04:21:54.412Z,994.83
2022-12-04T04:22:57.009Z,994.92
2022-12-04T04:23:59.641Z,994.9
2022-12-04T04:25:02.225Z,994.9
2022-12-04T04:26:04.846Z,994.86
2022-12-04T04:27:07.452Z,994.88
2022-12-04T04:28:10.028Z,994.86
2022-12-04T04:29:12.613Z,994.85
2022-12-04T04:30:15.235Z,994.93
2022-12-04T04:31:18.183Z,994.87
2022-12-04T04:32:20.779Z,994.92
2022-12-04T04:33:23.382Z,994.87
2022-12-04T04:34:25.977Z,994.88
2022-12-04T04:35:28.779Z,994.88
2022-12-04T04:36:31.508Z,994.85
2022-12-04T04:37:34.128Z,994.89
2022-12-04T04:38:36.738Z,994.9
2022-12-04T04:39:39.375Z,994.92
2022-12-04T04:40:41.998Z,994.91
2022-12-04T04:41:44.598Z,994.99
2022-12-04T04:42:47.219Z,994.98
2022-12-04T04:43:49.809Z,994.96
2022-12-04T04:44:52.438Z,994.94
2022-12-04T04:45:55.315Z,994.94
2022-12-04T04:46:58.210Z,994.95
2022-12-04T04:48:00.821Z,994.94
2022-12-04T04:49:03.438Z,995
2022-12-04T04:50:06.036Z,994.96
2022-12-04T04:51:08.663Z,995.02
2022-12-04T04:52:12.931Z,995.05
2022-12-04T04:53:15.395Z,995.02
2022-12-04T04:54:17.960Z,995.08
2022-12-04T04:55:20.592Z,995.07
2022-12-04T04:56:23.219Z,995.01
2022-12-04T04:57:25.839Z,995.06
2022-12-04T04:58:28.461Z,995.07
2022-12-04T04:59:31.088Z,995.09
2022-12-04T05:00:33.739Z,995.06
2022-12-04T05:01:36.565Z,995.05
2022-12-04T05:02:49.415Z,995.07
2022-12-04T05:03:51.680Z,995.07
2022-12-04T05:04:54.253Z,995
2022-12-04T05:05:57.130Z,994.99
2022-12-04T05:06:59.684Z,994.92
2022-12-04T05:08:02.721Z,995.01
2022-12-04T05:09:05.347Z,994.97
2022-12-04T05:10:07.972Z,994.98
2022-12-04T05:11:10.583Z,994.99
2022-12-04T05:12:13.214Z,994.98
2022-12-04T05:13:15.838Z,994.96
2022-12-04T05:14:18.441Z,994.98
2022-12-04T05:15:21.039Z,994.98
2022-12-04T05:16:24.404Z,994.91
2022-12-04T05:17:26.992Z,994.96
2022-12-04T05:18:29.644Z,994.96
2022-12-04T05:19:32.192Z,994.85
2022-12-04T05:20:34.779Z,994.82
2022-12-04T05:21:37.374Z,994.83
2022-12-04T05:22:39.997Z,994.79
2022-12-04T05:23:42.761Z,994.79
2022-12-04T05:24:45.367Z,994.84
2022-12-04T05:25:47.976Z,994.84
2022-12-04T05:26:50.626Z,994.82
2022-12-04T05:27:53.223Z,994.85
2022-12-04T05:28:55.877Z,994.77
2022-12-04T05:29:59.783Z,994.8
2022-12-04T05:31:02.539Z,994.83
2022-12-04T05:32:05.108Z,994.78
2022-12-04T05:33:08.892Z,994.83
2022-12-04T05:34:12.059Z,994.89
2022-12-04T05:35:14.629Z,994.86
2022-12-04T05:36:17.266Z,994.95
2022-12-04T05:37:19.873Z,994.91
2022-12-04T05:38:22.733Z,994.91
2022-12-04T05:39:26.526Z,994.91
2022-12-04T05:40:29.087Z,994.93
2022-12-04T05:41:31.691Z,994.9
2022-12-04T05:42:34.284Z,994.91
2022-12-04T05:43:36.849Z,994.88
2022-12-04T05:44:39.417Z,994.92
2022-12-04T05:45:42.634Z,994.92
2022-12-04T05:46:45.550Z,994.89
2022-12-04T05:47:48.204Z,994.89
2022-12-04T05:48:51.796Z,994.85
2022-12-04T05:49:56.099Z,994.83
2022-12-04T05:51:02.200Z,994.89
2022-12-04T05:52:06.115Z,994.88
2022-12-04T05:53:08.627Z,994.85
2022-12-04T05:54:11.249Z,994.87
2022-12-04T05:55:13.952Z,994.82
2022-12-04T05:56:16.523Z,994.85
2022-12-04T05:57:19.392Z,994.88
2022-12-04T05:58:22.017Z,994.89
2022-12-04T05:59:24.650Z,994.91
2022-12-04T06:00:27.292Z,994.89
2022-12-04T06:01:29.884Z,994.93
2022-12-04T06:02:33.117Z,994.93
2022-12-04T06:03:36.066Z,994.9
2022-12-04T06:04:38.767Z,994.87
2022-12-04T06:05:41.367Z,994.87
2022-12-04T06:06:44.019Z,994.91
2022-12-04T06:07:46.949Z,994.85
2022-12-04T06:08:49.597Z,994.89
2022-12-04T06:09:52.271Z,994.91
2022-12-04T06:10:55.087Z,994.92
2022-12-04T06:11:57.907Z,994.94
2022-12-04T06:13:00.555Z,994.95
2022-12-04T06:14:03.189Z,994.91
2022-12-04T06:15:05.818Z,994.9
2022-12-04T06:16:08.600Z,994.97
2022-12-04T06:17:11.226Z,994.97
2022-12-04T06:18:13.882Z,994.95
2022-12-04T06:19:16.467Z,995
2022-12-04T06:20:22.814Z,995
2022-12-04T06:21:25.441Z,994.96
2022-12-04T06:22:28.064Z,994.97
2022-12-04T06:23:30.640Z,994.94
2022-12-04T06:24:33.263Z,994.95
2022-12-04T06:25:35.901Z,994.96
2022-12-04T06:27:25.394Z,994.9
2022-12-04T06:28:00.357Z,994.96
2022-12-04T06:29:02.903Z,994.94
2022-12-04T06:30:06.491Z,994.99
2022-12-04T06:31:09.364Z,995
2022-12-04T06:32:22.518Z,995
2022-12-04T06:33:24.747Z,994.95
2022-12-04T06:34:27.323Z,994.92
2022-12-04T06:35:29.849Z,994.97
2022-12-04T06:36:32.450Z,995.05
2022-12-04T06:37:35.057Z,995.03
2022-12-04T06:38:37.656Z,995.03
2022-12-04T06:39:40.350Z,995.03
2022-12-04T06:40:42.967Z,995.02
2022-12-04T06:41:45.603Z,994.97
2022-12-04T06:42:48.306Z,995.06
2022-12-04T06:43:50.916Z,995.05
2022-12-04T06:44:53.570Z,995.03
2022-12-04T06:45:56.531Z,995.04
2022-12-04T06:47:01.573Z,995.06
2022-12-04T06:48:03.933Z,995.01
2022-12-04T06:49:06.568Z,995.01
2022-12-04T06:50:09.164Z,994.98
2022-12-04T06:51:11.815Z,995.04
2022-12-04T06:52:14.460Z,995.08
2022-12-04T06:53:17.066Z,995.06
2022-12-04T06:54:19.661Z,995.07
2022-12-04T06:55:22.288Z,995.16
2022-12-04T06:56:24.875Z,995.11
2022-12-04T06:57:27.547Z,995.09
2022-12-04T06:58:30.241Z,995.13
2022-12-04T06:59:33.078Z,995.09
2022-12-04T07:00:36.154Z,995.1
2022-12-04T07:01:40.134Z,995.12
2022-12-04T07:02:42.935Z,995.08
2022-12-04T07:03:52.155Z,995.09
2022-12-04T07:04:54.487Z,995.11
2022-12-04T07:05:57.070Z,995.1
2022-12-04T07:06:59.584Z,995.09
2022-12-04T07:08:02.343Z,995.09
2022-12-04T07:09:04.976Z,995.11
2022-12-04T07:10:07.638Z,995.09
2022-12-04T07:11:10.240Z,995.14
2022-12-04T07:12:12.862Z,995.16
2022-12-04T07:13:15.495Z,995.16
2022-12-04T07:14:18.190Z,995.1
2022-12-04T07:15:21.009Z,995.14
2022-12-04T07:16:23.964Z,995.13
2022-12-04T07:17:26.564Z,995.12
2022-12-04T07:18:29.171Z,995.12
2022-12-04T07:19:31.841Z,995.13
2022-12-04T07:20:36.973Z,995.11
2022-12-04T07:21:39.521Z,995.09
2022-12-04T07:22:42.131Z,995.11
2022-12-04T07:23:44.762Z,995.1
2022-12-04T07:24:47.558Z,995.06
2022-12-04T07:25:50.066Z,995.1
2022-12-04T07:26:52.713Z,995.12
2022-12-04T07:27:55.632Z,995.09
2022-12-04T07:28:58.302Z,995.11
2022-12-04T07:30:00.986Z,995.14
2022-12-04T07:31:03.635Z,995.2
2022-12-04T07:32:06.550Z,995.17
2022-12-04T07:33:09.396Z,995.17
2022-12-04T07:34:12.010Z,995.18
2022-12-04T07:35:14.633Z,995.17
2022-12-04T07:36:17.853Z,995.21
2022-12-04T07:37:20.431Z,995.2
2022-12-04T07:38:23.560Z,995.21
2022-12-04T07:39:26.131Z,995.24
2022-12-04T07:40:28.774Z,995.22
2022-12-04T07:41:31.396Z,995.24
2022-12-04T07:42:34.011Z,995.3
2022-12-04T07:43:36.674Z,995.32
2022-12-04T07:44:39.325Z,995.28
2022-12-04T07:45:42.413Z,995.33
2022-12-04T07:46:45.006Z,995.33
2022-12-04T07:47:47.645Z,995.32
2022-12-04T07:48:50.233Z,995.33
2022-12-04T07:49:54.369Z,995.31
2022-12-04T07:50:57.043Z,995.28
2022-12-04T07:51:59.688Z,995.32
2022-12-04T07:53:02.327Z,995.35
2022-12-04T07:54:04.968Z,995.32
2022-12-04T07:55:11.138Z,995.37
2022-12-04T07:56:13.487Z,995.41
2022-12-04T07:57:16.074Z,995.37
2022-12-04T07:58:18.792Z,995.41
2022-12-04T07:59:21.458Z,995.49
2022-12-04T08:00:24.030Z,995.47
2022-12-04T08:01:27.142Z,995.44
2022-12-04T08:02:29.831Z,995.46
2022-12-04T08:03:32.429Z,995.48
2022-12-04T08:04:35.387Z,995.46
2022-12-04T08:05:38.050Z,995.44
2022-12-04T08:06:40.644Z,995.4
2022-12-04T08:07:43.536Z,995.43
2022-12-04T08:08:46.180Z,995.44
2022-12-04T08:09:50.302Z,995.39
2022-12-04T08:10:52.739Z,995.35
2022-12-04T08:11:55.976Z,995.42
2022-12-04T08:12:58.494Z,995.43
2022-12-04T08:14:01.115Z,995.42
2022-12-04T08:15:03.724Z,995.38
2022-12-04T08:16:06.357Z,995.43
2022-12-04T08:17:09.444Z,995.41
2022-12-04T08:18:12.070Z,995.41
2022-12-04T08:19:14.724Z,995.38
2022-12-04T08:20:17.355Z,995.36
2022-12-04T08:21:19.988Z,995.32
2022-12-04T08:22:25.783Z,995.29
2022-12-04T08:23:28.164Z,995.35
2022-12-04T08:24:30.747Z,995.35
2022-12-04T08:25:33.375Z,995.29
2022-12-04T08:26:35.965Z,995.25
2022-12-04T08:27:47.952Z,995.28
2022-12-04T08:28:50.142Z,995.22
2022-12-04T08:29:53.728Z,995.25
2022-12-04T08:30:56.734Z,995.23
2022-12-04T08:31:59.367Z,995.3
2022-12-04T08:33:02.130Z,995.33
2022-12-04T08:34:04.761Z,995.29
2022-12-04T08:35:07.384Z,995.28
2022-12-04T08:36:10.081Z,995.29
2022-12-04T08:37:12.759Z,995.25
2022-12-04T08:38:15.473Z,995.28
2022-12-04T08:39:18.173Z,995.29
2022-12-04T08:40:20.818Z,995.28
2022-12-04T08:41:25.788Z,995.24
2022-12-04T08:42:28.308Z,995.24
2022-12-04T08:43:30.888Z,995.29
2022-12-04T08:44:33.521Z,995.32
2022-12-04T08:45:36.202Z,995.32
2022-12-04T08:46:39.444Z,995.27
2022-12-04T08:47:42.116Z,995.3
2022-12-04T08:48:44.838Z,995.24
2022-12-04T08:49:47.451Z,995.21
2022-12-04T08:50:50.089Z,995.21
2022-12-04T08:51:52.726Z,995.18
2022-12-04T08:52:55.375Z,995.26
2022-12-04T08:53:57.965Z,995.23
2022-12-04T08:55:01.196Z,995.31
2022-12-04T08:56:03.840Z,995.26
2022-12-04T08:57:06.465Z,995.23
2022-12-04T08:58:09.092Z,995.26
2022-12-04T08:59:11.739Z,995.26
2022-12-04T09:00:14.641Z,995.2
2022-12-04T09:01:17.484Z,995.22
2022-12-04T09:02:20.120Z,995.26
2022-12-04T09:03:31.400Z,995.16
2022-12-04T09:04:33.843Z,995.21
2022-12-04T09:05:36.481Z,995.2
2022-12-04T09:06:39.062Z,995.24
2022-12-04T09:07:42.021Z,995.19
2022-12-04T09:08:44.644Z,995.19
2022-12-04T09:09:48.887Z,995.16
2022-12-04T09:10:51.419Z,995.12
2022-12-04T09:11:54.078Z,995.12
2022-12-04T09:12:56.717Z,995.09
2022-12-04T09:13:59.398Z,995.11
2022-12-04T09:15:03.054Z,995.07
2022-12-04T09:16:06.267Z,995.1
2022-12-04T09:17:08.904Z,995.13
2022-12-04T09:18:11.538Z,995.13
2022-12-04T09:19:15.915Z,995.12
2022-12-04T09:20:18.478Z,995.14
2022-12-04T09:21:21.422Z,995.12
2022-12-04T09:22:24.035Z,995.13
2022-12-04T09:23:26.636Z,995.08
2022-12-04T09:24:29.302Z,995.19
2022-12-04T09:25:31.982Z,995.14
2022-12-04T09:26:34.694Z,995.22
2022-12-04T09:27:37.340Z,995.19
2022-12-04T09:28:39.977Z,995.2
2022-12-04T09:29:42.661Z,995.24
2022-12-04T09:30:45.663Z,995.26
2022-12-04T09:31:48.239Z,995.23
2022-12-04T09:32:50.844Z,995.27
2022-12-04T09:33:53.482Z,995.27
2022-12-04T09:34:56.139Z,995.37
2022-12-04T09:35:59.293Z,995.29
2022-12-04T09:37:02.336Z,995.32
2022-12-04T09:38:04.956Z,995.33
2022-12-04T09:39:07.578Z,995.32
2022-12-04T09:40:10.160Z,995.31
2022-12-04T09:41:12.790Z,995.34
2022-12-04T09:42:15.464Z,995.35
2022-12-04T09:43:18.093Z,995.31
2022-12-04T09:44:20.707Z,995.3
2022-12-04T09:45:23.329Z,995.31
2022-12-04T09:46:26.179Z,995.35
2022-12-04T09:47:28.830Z,995.28
2022-12-04T09:48:31.476Z,995.32
2022-12-04T09:49:34.107Z,995.32
2022-12-04T09:50:36.739Z,995.23
2022-12-04T09:51:39.446Z,995.32
2022-12-04T09:52:42.085Z,995.27
2022-12-04T09:53:44.697Z,995.32
2022-12-04T09:54:47.575Z,995.33
2022-12-04T09:55:50.174Z,995.29
2022-12-04T09:56:52.801Z,995.29
2022-12-04T09:58:02.810Z,995.28
2022-12-04T09:59:05.047Z,995.23
2022-12-04T10:00:07.655Z,995.22
2022-12-04T10:01:10.512Z,995.16
2022-12-04T10:02:13.482Z,995.22
2022-12-04T10:03:17.256Z,995.25
2022-12-04T10:04:20.484Z,995.18
2022-12-04T10:05:23.166Z,995.15
2022-12-04T10:06:25.838Z,995.15
2022-12-04T10:07:35.018Z,995.12
2022-12-04T10:08:36.294Z,995.18
2022-12-04T10:09:38.823Z,995.2
2022-12-04T10:10:41.466Z,995.19
2022-12-04T10:11:44.077Z,995.2
2022-12-04T10:12:46.695Z,995.27
2022-12-04T10:13:49.345Z,995.24
2022-12-04T10:14:51.986Z,995.29
2022-12-04T10:15:55.024Z,995.22
2022-12-04T10:16:57.648Z,995.27
2022-12-04T10:18:00.268Z,995.3
2022-12-04T10:19:02.917Z,995.31
2022-12-04T10:20:05.666Z,995.3
2022-12-04T10:21:08.268Z,995.31
2022-12-04T10:22:10.949Z,995.26
2022-12-04T10:23:14.619Z,995.31
2022-12-04T10:24:17.258Z,995.25
2022-12-04T10:25:19.877Z,995.28
2022-12-04T10:26:22.509Z,995.18
2022-12-04T10:27:25.682Z,995.19
2022-12-04T10:28:28.417Z,995.22
2022-12-04T10:29:31.021Z,995.23
2022-12-04T10:30:33.670Z,995.23
2022-12-04T10:31:36.616Z,995.22
2022-12-04T10:32:39.230Z,995.26
2022-12-04T10:33:41.857Z,995.24
2022-12-04T10:34:46.389Z,995.27
2022-12-04T10:35:48.817Z,995.24
2022-12-04T10:36:51.442Z,995.19
2022-12-04T10:37:54.118Z,995.21
2022-12-04T10:38:56.822Z,995.18
2022-12-04T10:39:59.709Z,995.22
2022-12-04T10:41:02.299Z,995.14
2022-12-04T10:42:04.911Z,995.15
2022-12-04T10:43:07.536Z,995.16
2022-12-04T10:44:10.413Z,995.15
2022-12-04T10:45:12.975Z,995.16
2022-12-04T10:46:16.089Z,995.22
2022-12-04T10:47:18.943Z,995.23
2022-12-04T10:48:21.829Z,995.29
2022-12-04T10:49:24.422Z,995.25
2022-12-04T10:50:27.322Z,995.21
2022-12-04T10:51:30.554Z,995.24
2022-12-04T10:52:33.141Z,995.32
2022-12-04T10:53:35.812Z,995.28
2022-12-04T10:54:38.512Z,995.27
2022-12-04T10:55:42.713Z,995.27
2022-12-04T10:56:45.171Z,995.28
2022-12-04T10:57:47.786Z,995.3
2022-12-04T10:58:50.317Z,995.3
2022-12-04T10:59:54.229Z,995.28
2022-12-04T11:00:56.887Z,995.27
2022-12-04T11:02:07.653Z,995.26
2022-12-04T11:03:10.246Z,995.27
2022-12-04T11:04:12.834Z,995.21
2022-12-04T11:05:15.425Z,995.23
2022-12-04T11:06:18.041Z,995.28
2022-12-04T11:07:20.719Z,995.24
2022-12-04T11:08:23.863Z,995.27
2022-12-04T11:09:26.729Z,995.27
2022-12-04T11:10:29.405Z,995.28
2022-12-04T11:11:32.175Z,995.27
2022-12-04T11:12:35.016Z,995.22
2022-12-04T11:13:37.662Z,995.23
2022-12-04T11:14:47.706Z,995.23
2022-12-04T11:15:50.186Z,995.27
2022-12-04T11:16:52.850Z,995.24
2022-12-04T11:17:55.764Z,995.17
2022-12-04T11:18:58.349Z,995.23
2022-12-04T11:20:01.433Z,995.21
2022-12-04T11:21:07.527Z,995.19
2022-12-04T11:22:09.861Z,995.22
2022-12-04T11:23:12.548Z,995.19
2022-12-04T11:24:15.174Z,995.17
2022-12-04T11:25:17.834Z,995.14
2022-12-04T11:26:21.110Z,995.2
2022-12-04T11:27:23.677Z,995.17
2022-12-04T11:28:42.639Z,995.19
2022-12-04T11:29:44.926Z,995.17
2022-12-04T11:30:47.570Z,995.15
2022-12-04T11:31:50.461Z,995.17
2022-12-04T11:32:53.116Z,995.14
2022-12-04T11:33:55.706Z,995.2
2022-12-04T11:34:58.348Z,995.19
2022-12-04T11:36:00.926Z,995.16
2022-12-04T11:37:03.552Z,995.14
2022-12-04T11:38:06.190Z,995.12
2022-12-04T11:39:08.903Z,995.1
2022-12-04T11:40:11.589Z,995.08
2022-12-04T11:41:14.511Z,995.16
2022-12-04T11:42:17.232Z,995.17
2022-12-04T11:43:19.812Z,995.14
2022-12-04T11:44:22.444Z,995.16
2022-12-04T11:45:25.112Z,995.21
2022-12-04T11:46:28.005Z,995.12
2022-12-04T11:47:30.667Z,995.18
2022-12-04T11:48:33.339Z,995.17
2022-12-04T11:49:44.231Z,995.19
2022-12-04T11:50:46.487Z,995.18
2022-12-04T11:51:49.059Z,995.17
2022-12-04T11:52:51.645Z,995.14
2022-12-04T11:53:54.249Z,995.06
2022-12-04T11:54:56.868Z,995.02
2022-12-04T11:55:59.545Z,995.02
2022-12-04T11:57:05.925Z,995.02
2022-12-04T11:58:08.919Z,995.01
2022-12-04T11:59:23.051Z,995.01
2022-12-04T12:00:25.238Z,995.04
2022-12-04T12:01:28.087Z,994.98
2022-12-04T12:02:31.801Z,994.95
2022-12-04T12:03:34.756Z,995.01
2022-12-04T12:04:37.426Z,995.02
2022-12-04T12:05:40.019Z,994.97
2022-12-04T12:06:42.693Z,995.09
2022-12-04T12:07:45.540Z,995.03
2022-12-04T12:08:48.108Z,995.07
2022-12-04T12:09:50.840Z,995.05
2022-12-04T12:10:53.458Z,995.09
2022-12-04T12:12:06.727Z,994.98
2022-12-04T12:13:08.621Z,995.02
2022-12-04T12:14:11.297Z,995.04
2022-12-04T12:15:14.479Z,995.1
2022-12-04T12:16:17.554Z,995.1
2022-12-04T12:17:21.225Z,995.12
2022-12-04T12:18:23.754Z,995.07
2022-12-04T12:19:26.361Z,995.04
2022-12-04T12:20:29.015Z,995.08
2022-12-04T12:21:31.716Z,995.06
2022-12-04T12:22:34.310Z,995.05
2022-12-04T12:23:37.232Z,995.02
2022-12-04T12:24:40.496Z,994.99
2022-12-04T12:25:53.168Z,995.03
2022-12-04T12:26:55.960Z,995
2022-12-04T12:28:01.841Z,994.92
2022-12-04T12:29:04.208Z,994.94
2022-12-04T12:30:16.950Z,994.85
2022-12-04T12:31:19.355Z,994.89
2022-12-04T12:32:22.277Z,994.91
2022-12-04T12:33:24.937Z,994.93
2022-12-04T12:34:27.678Z,994.96
2022-12-04T12:35:40.385Z,994.96
2022-12-04T12:36:44.373Z,994.86
2022-12-04T12:37:46.725Z,994.91
2022-12-04T12:38:52.013Z,994.85
2022-12-04T12:39:56.193Z,994.88
2022-12-04T12:40:58.773Z,994.81
2022-12-04T12:42:01.321Z,994.79
2022-12-04T12:43:04.061Z,994.72
2022-12-04T12:44:06.689Z,994.74
2022-12-04T12:45:09.609Z,994.75
2022-12-04T12:46:12.568Z,994.74
2022-12-04T12:47:15.161Z,994.76
2022-12-04T12:48:18.103Z,994.71
2022-12-04T12:49:20.821Z,994.74
2022-12-04T12:50:24.932Z,994.75
2022-12-04T12:51:32.436Z,994.8
2022-12-04T12:52:34.730Z,994.77
2022-12-04T12:53:38.619Z,994.79
2022-12-04T12:54:41.200Z,994.83
2022-12-04T12:55:43.780Z,994.79
2022-12-04T12:56:53.003Z,994.74
2022-12-04T12:57:58.091Z,994.77
2022-12-04T12:59:00.442Z,994.73
2022-12-04T13:00:03.632Z,994.71
2022-12-04T13:01:06.811Z,994.73
2022-12-04T13:02:09.682Z,994.69
2022-12-04T13:03:12.315Z,994.72
2022-12-04T13:04:14.916Z,994.73
2022-12-04T13:05:17.497Z,994.74
2022-12-04T13:06:23.638Z,994.73
2022-12-04T13:07:26.066Z,994.7
2022-12-04T13:08:28.594Z,994.62
2022-12-04T13:09:31.223Z,994.61
2022-12-04T13:10:33.900Z,994.52
2022-12-04T13:11:36.522Z,994.47
2022-12-04T13:12:39.111Z,994.46
2022-12-04T13:13:41.849Z,994.4
2022-12-04T13:14:49.586Z,994.44
2022-12-04T13:15:51.897Z,994.34
2022-12-04T13:16:55.000Z,994.34
2022-12-04T13:17:57.712Z,994.35